createdAt,value
2022-08-27T00:01:23.789Z,18.67
2022-08-27T00:06:20.474Z,18.62
2022-08-27T00:11:15.000Z,18.57
2022-08-27T00:16:13.042Z,18.58
2022-08-27T00:21:08.491Z,18.65
2022-08-27T00:26:01.893Z,18.64
2022-08-27T00:30:55.515Z,18.69
2022-08-27T00:35:49.022Z,18.66
2022-08-27T00:40:44.218Z,18.68
2022-08-27T00:45:42.741Z,18.72
2022-08-27T00:50:41.055Z,18.75
2022-08-27T00:55:42.022Z,18.72
2022-08-27T01:00:38.021Z,18.76
2022-08-27T01:05:31.637Z,18.62
2022-08-27T01:10:29.767Z,18.63
2022-08-27T01:15:27.885Z,18.76
2022-08-27T01:20:26.859Z,18.67
2022-08-27T01:25:23.629Z,18.74
2022-08-27T01:30:20.780Z,18.77
2022-08-27T01:35:16.329Z,18.82
2022-08-27T01:40:13.672Z,18.80
2022-08-27T01:45:15.762Z,18.81
2022-08-27T01:50:14.005Z,18.56
2022-08-27T01:55:11.943Z,18.64
2022-08-27T02:00:09.697Z,18.71
2022-08-27T02:05:05.274Z,18.74
2022-08-27T02:09:58.663Z,18.73
2022-08-27T02:14:52.379Z,18.77
2022-08-27T02:19:45.734Z,18.82
2022-08-27T02:24:40.497Z,18.74
2022-08-27T02:29:34.351Z,18.78
2022-08-27T02:34:27.700Z,18.82
2022-08-27T02:39:24.225Z,18.79
2022-08-27T02:44:19.189Z,18.75
2022-08-27T02:49:13.022Z,18.56
2022-08-27T02:54:08.112Z,18.59
2022-08-27T02:59:03.144Z,18.67
2022-08-27T03:03:58.622Z,18.68
2022-08-27T03:08:53.380Z,18.68
2022-08-27T03:13:46.893Z,18.60
2022-08-27T03:18:41.708Z,18.54
2022-08-27T03:23:36.603Z,18.55
2022-08-27T03:28:36.245Z,18.58
2022-08-27T03:33:31.579Z,18.48
2022-08-27T03:38:25.908Z,18.51
2022-08-27T03:43:22.794Z,18.53
2022-08-27T03:48:18.734Z,18.47
2022-08-27T03:53:12.621Z,18.48
2022-08-27T03:58:06.032Z,18.40
2022-08-27T04:03:00.815Z,18.39
2022-08-27T04:07:54.129Z,18.46
2022-08-27T04:12:47.441Z,18.50
2022-08-27T04:17:41.575Z,18.56
2022-08-27T04:22:37.223Z,18.56
2022-08-27T04:27:32.020Z,18.45
2022-08-27T04:32:29.046Z,18.46
2022-08-27T04:37:23.349Z,18.52
2022-08-27T04:42:19.311Z,18.48
2022-08-27T04:47:13.383Z,18.49
2022-08-27T04:52:07.639Z,18.32
2022-08-27T04:57:01.382Z,18.16
2022-08-27T05:01:56.120Z,18.28
2022-08-27T05:06:50.758Z,18.38
2022-08-27T05:11:48.097Z,18.44
2022-08-27T05:16:41.834Z,18.43
2022-08-27T05:21:40.489Z,18.45
2022-08-27T05:26:37.386Z,18.45
2022-08-27T05:31:30.929Z,18.45
2022-08-27T05:36:28.161Z,18.51
2022-08-27T05:41:30.253Z,18.54
2022-08-27T05:46:29.215Z,18.53
2022-08-27T05:51:26.738Z,18.56
2022-08-27T05:56:24.373Z,18.55
2022-08-27T06:01:23.699Z,18.56
2022-08-27T06:06:17.097Z,18.66
2022-08-27T06:11:11.695Z,18.69
2022-08-27T06:16:09.433Z,18.75
2022-08-27T06:21:02.765Z,18.86
2022-08-27T06:25:56.889Z,18.89
2022-08-27T06:30:50.298Z,18.92
2022-08-27T06:35:44.952Z,18.90
2022-08-27T06:40:42.642Z,18.98
2022-08-27T06:45:40.262Z,18.91
2022-08-27T06:50:39.766Z,19.11
2022-08-27T06:55:41.202Z,19.10
2022-08-27T07:00:34.623Z,19.10
2022-08-27T07:05:28.200Z,19.13
2022-08-27T07:10:21.896Z,19.14
2022-08-27T07:15:16.840Z,19.13
2022-08-27T07:20:10.685Z,19.21
2022-08-27T07:25:04.225Z,19.04
2022-08-27T07:29:57.544Z,19.07
2022-08-27T07:34:52.232Z,19.17
2022-08-27T07:39:46.406Z,19.21
2022-08-27T07:44:39.772Z,19.24
2022-08-27T07:49:35.387Z,19.25
2022-08-27T07:54:30.200Z,19.26
2022-08-27T07:59:24.457Z,19.27
2022-08-27T08:04:20.267Z,19.26
2022-08-27T08:09:14.014Z,19.34
2022-08-27T08:14:08.782Z,19.36
2022-08-27T08:19:02.098Z,19.41
2022-08-27T08:23:55.593Z,19.45
2022-08-27T08:28:48.939Z,19.46
2022-08-27T08:33:43.692Z,19.47
2022-08-27T08:38:37.837Z,19.48
2022-08-27T08:43:36.874Z,19.65
2022-08-27T08:48:32.669Z,19.68
2022-08-27T08:53:40.519Z,19.62
2022-08-27T08:58:47.146Z,19.61
2022-08-27T09:03:49.121Z,19.68
2022-08-27T09:08:45.234Z,19.70
2022-08-27T10:21:17.238Z,20.72
2022-08-27T10:26:33.600Z,20.73
2022-08-27T10:32:03.718Z,20.74
2022-08-27T11:40:22.439Z,21.44
2022-08-27T11:45:24.755Z,21.41
2022-08-27T11:50:37.372Z,21.52
2022-08-27T11:55:36.561Z,21.69
2022-08-27T12:00:34.676Z,22.03
2022-08-27T12:05:45.547Z,22.30
2022-08-27T12:10:57.513Z,22.26
2022-08-27T12:16:06.900Z,22.39
2022-08-27T12:21:19.343Z,22.45
2022-08-27T12:26:31.964Z,22.71
2022-08-27T12:31:26.077Z,22.73
2022-08-27T12:41:59.537Z,23.11
2022-08-27T12:47:01.898Z,22.70
2022-08-27T12:51:59.957Z,22.81
2022-08-27T12:57:12.538Z,22.65
2022-08-27T13:02:25.779Z,22.54
2022-08-27T13:07:38.131Z,22.44
2022-08-27T13:12:34.153Z,22.29
2022-08-27T13:17:42.752Z,22.27
2022-08-27T13:22:43.635Z,22.06
2022-08-27T13:27:41.700Z,21.87
2022-08-27T13:32:38.626Z,21.76
2022-08-27T13:37:42.575Z,21.78
2022-08-27T13:42:44.744Z,21.71
2022-08-27T13:47:47.838Z,21.71
2022-08-27T13:52:56.962Z,21.81
2022-08-27T13:57:55.128Z,21.75
2022-08-27T14:02:55.550Z,21.79
2022-08-27T14:07:54.272Z,21.70
2022-08-27T14:12:59.342Z,21.71
2022-08-27T14:17:52.812Z,21.80
2022-08-27T14:22:47.138Z,21.91
2022-08-27T14:27:45.104Z,22.12
2022-08-27T14:32:50.401Z,22.10
2022-08-27T14:37:49.719Z,21.94
2022-08-27T14:42:43.178Z,21.64
2022-08-27T14:47:41.113Z,21.39
2022-08-27T14:52:53.518Z,21.39
2022-08-27T14:57:47.177Z,21.10
2022-08-27T15:02:50.982Z,21.11
2022-08-27T15:07:48.491Z,21.02
2022-08-27T15:12:50.671Z,20.93
2022-08-27T15:17:44.269Z,20.85
2022-08-27T15:22:54.382Z,20.82
2022-08-27T15:28:08.094Z,20.65
2022-08-27T15:33:34.909Z,20.59
2022-08-27T15:38:47.243Z,20.45
2022-08-27T15:43:42.358Z,20.51
2022-08-27T15:48:41.662Z,20.58
2022-08-27T15:53:36.181Z,20.65
2022-08-27T15:58:29.780Z,20.65
2022-08-27T16:03:35.897Z,20.81
2022-08-27T16:08:29.795Z,20.70
2022-08-27T16:13:27.844Z,20.64
2022-08-27T16:18:28.265Z,20.53
2022-08-27T16:23:38.970Z,20.52
2022-08-27T16:29:14.475Z,20.61
2022-08-27T16:34:44.259Z,20.57
2022-08-27T16:39:40.671Z,20.42
2022-08-27T16:44:36.263Z,20.35
2022-08-27T16:49:59.976Z,20.33
2022-08-27T17:00:48.200Z,20.36
2022-08-27T17:05:42.963Z,20.36
2022-08-27T17:10:43.366Z,20.37
2022-08-27T17:15:37.099Z,20.40
2022-08-27T17:20:31.691Z,20.39
2022-08-27T17:25:29.985Z,20.40
2022-08-27T17:30:27.687Z,20.35
2022-08-27T17:35:21.150Z,20.33
2022-08-27T17:40:39.963Z,20.26
2022-08-27T17:46:29.348Z,20.35
2022-08-27T17:51:23.609Z,20.22
2022-08-27T17:56:23.109Z,20.14
2022-08-27T18:01:31.727Z,20.24
2022-08-27T18:06:26.581Z,20.17
2022-08-27T18:11:21.747Z,20.09
2022-08-27T18:16:15.086Z,20.03
2022-08-27T18:21:08.505Z,20.06
2022-08-27T18:26:03.362Z,20.01
2022-08-27T18:31:29.954Z,19.93
2022-08-27T18:42:19.410Z,19.85
2022-08-27T18:47:40.765Z,19.77
2022-08-27T18:52:52.379Z,19.72
2022-08-27T18:57:47.473Z,19.67
2022-08-27T19:02:55.464Z,19.68
2022-08-27T19:07:49.030Z,19.58
2022-08-27T19:12:52.552Z,19.46
2022-08-27T19:18:33.729Z,19.35
2022-08-27T19:23:27.187Z,19.40
2022-08-27T19:28:26.950Z,19.43
2022-08-27T19:33:22.454Z,19.43
2022-08-27T19:38:16.555Z,19.45
2022-08-27T19:43:10.542Z,19.42
2022-08-27T19:48:04.743Z,19.47
2022-08-27T19:52:59.532Z,19.48
2022-08-27T19:57:52.988Z,19.53
2022-08-27T20:02:47.848Z,19.54
2022-08-27T20:07:44.254Z,19.28
2022-08-27T20:12:39.120Z,19.30
2022-08-27T20:17:32.417Z,19.38
2022-08-27T20:22:26.988Z,19.42
2022-08-27T20:27:21.639Z,19.30
2022-08-27T20:32:16.555Z,19.19
2022-08-27T20:37:10.127Z,19.19
2022-08-27T20:42:34.401Z,19.15
2022-08-27T20:47:52.956Z,19.22
2022-08-27T20:52:46.923Z,19.33
2022-08-27T20:58:06.327Z,19.24
2022-08-27T21:03:01.592Z,19.16
2022-08-27T21:07:54.978Z,19.03
2022-08-27T21:12:49.461Z,18.93
2022-08-27T21:17:43.332Z,18.97
2022-08-27T21:22:38.407Z,18.96
2022-08-27T21:27:31.752Z,18.89
2022-08-27T21:32:30.139Z,18.85
2022-08-27T21:37:24.132Z,18.81
2022-08-27T21:42:19.544Z,18.77
2022-08-27T21:47:20.908Z,18.80
2022-08-27T21:52:17.361Z,18.81
2022-08-27T21:57:14.336Z,18.71
2022-08-27T22:02:23.219Z,18.69
2022-08-27T22:07:24.340Z,18.59
2022-08-27T22:12:17.695Z,18.58
2022-08-27T22:17:25.263Z,18.53
2022-08-27T22:22:35.903Z,18.42
2022-08-27T22:27:29.509Z,18.45
2022-08-27T22:32:24.231Z,18.49
2022-08-27T22:37:20.079Z,18.39
2022-08-27T22:43:41.445Z,18.41
2022-08-27T22:48:36.246Z,18.27
2022-08-27T22:53:38.316Z,18.26
2022-08-27T23:04:44.804Z,18.06
2022-08-27T23:09:39.128Z,17.98
2022-08-27T23:14:34.279Z,17.94
2022-08-27T23:20:05.946Z,17.98
2022-08-27T23:26:30.396Z,18.06
2022-08-27T23:57:39.838Z,17.93
